createdAt,value
2017-10-14T00:04:40.939Z,6.07
2017-10-14T00:10:09.057Z,6.67
2017-10-14T00:15:37.198Z,6.60
2017-10-14T00:21:05.326Z,6.40
2017-10-14T00:26:33.465Z,6.97
2017-10-14T00:32:02.636Z,7.27
2017-10-14T00:37:30.781Z,6.50
2017-10-14T00:42:58.915Z,6.80
2017-10-14T00:48:27.041Z,6.33
2017-10-14T00:53:55.177Z,6.40
2017-10-14T00:59:24.194Z,7.73
2017-10-14T01:04:52.351Z,6.40
2017-10-14T01:10:20.490Z,6.50
2017-10-14T01:15:48.624Z,5.53
2017-10-14T01:21:16.759Z,6.37
2017-10-14T01:26:44.897Z,6.90
2017-10-14T01:32:13.046Z,6.60
2017-10-14T01:37:41.190Z,6.10
2017-10-14T01:43:10.255Z,7.30
2017-10-14T01:48:38.465Z,7.30
2017-10-14T01:54:06.711Z,6.10
2017-10-14T01:59:34.961Z,6.27
2017-10-14T02:05:04.080Z,6.90
2017-10-14T02:10:32.323Z,7.60
2017-10-14T02:16:00.464Z,5.67
2017-10-14T02:21:28.604Z,5.37
2017-10-14T02:26:57.508Z,6.03
2017-10-14T02:32:25.628Z,5.10
2017-10-14T02:37:53.765Z,5.70
2017-10-14T02:43:21.923Z,5.87
2017-10-14T02:48:50.977Z,5.73
2017-10-14T02:54:19.116Z,5.47
2017-10-14T02:59:47.249Z,5.67
2017-10-14T03:05:16.171Z,5.57
2017-10-14T03:10:44.281Z,5.83
2017-10-14T03:16:13.183Z,5.77
2017-10-14T03:21:41.345Z,5.30
2017-10-14T03:27:09.481Z,5.47
2017-10-14T03:32:37.615Z,5.20
2017-10-14T03:38:06.515Z,6.27
2017-10-14T03:43:35.413Z,6.00
2017-10-14T03:49:03.538Z,6.27
2017-10-14T03:54:32.458Z,6.77
2017-10-14T04:00:00.646Z,5.40
2017-10-14T04:05:28.832Z,5.50
2017-10-14T04:10:57.766Z,5.47
2017-10-14T04:16:25.940Z,5.80
2017-10-14T04:21:54.861Z,5.50
2017-10-14T04:27:23.036Z,6.17
2017-10-14T04:32:51.171Z,6.10
2017-10-14T04:38:19.324Z,6.07
2017-10-14T04:43:47.442Z,6.17
2017-10-14T04:49:15.594Z,5.83
2017-10-14T04:54:43.800Z,7.10
2017-10-14T05:00:12.922Z,6.50
2017-10-14T05:05:41.075Z,5.67
2017-10-14T05:11:24.169Z,6.20
2017-10-14T05:16:53.000Z,6.43
2017-10-14T05:22:21.986Z,6.33
2017-10-14T05:27:50.869Z,6.30
2017-10-14T05:33:19.761Z,6.10
2017-10-14T05:38:48.874Z,6.80
2017-10-14T05:44:16.998Z,5.93
2017-10-14T05:49:45.141Z,5.97
2017-10-14T05:55:13.331Z,5.33
2017-10-14T06:00:41.530Z,5.40
2017-10-14T06:06:09.665Z,5.43
2017-10-14T06:11:37.827Z,4.60
2017-10-14T06:17:05.959Z,4.80
2017-10-14T06:22:34.069Z,4.37
2017-10-14T06:28:02.999Z,4.00
2017-10-14T06:33:31.146Z,4.00
2017-10-14T06:38:59.320Z,4.63
2017-10-14T06:44:27.475Z,5.27
2017-10-14T06:49:55.632Z,4.83
2017-10-14T06:55:24.361Z,4.33
2017-10-14T07:00:53.025Z,3.97
2017-10-14T07:06:21.323Z,4.30
2017-10-14T07:11:49.468Z,4.03
2017-10-14T07:17:17.620Z,4.70
2017-10-14T07:22:45.757Z,4.50
2017-10-14T07:28:14.695Z,5.13
2017-10-14T07:33:42.843Z,5.40
2017-10-14T07:39:10.968Z,5.20
2017-10-14T07:44:39.118Z,4.50
2017-10-14T07:50:07.280Z,4.63
2017-10-14T07:55:35.419Z,4.10
2017-10-14T08:01:04.319Z,4.13
2017-10-14T08:06:32.457Z,3.77
2017-10-14T08:12:01.440Z,3.03
2017-10-14T08:17:30.120Z,3.10
2017-10-14T08:22:58.341Z,2.90
2017-10-14T08:28:26.488Z,3.17
2017-10-14T08:33:54.694Z,3.30
2017-10-14T08:39:22.869Z,3.33
2017-10-14T08:44:51.186Z,3.40
2017-10-14T08:50:20.105Z,3.30
2017-10-14T08:55:48.233Z,3.23
2017-10-14T09:01:17.140Z,3.00
2017-10-14T09:06:47.259Z,3.10
2017-10-14T09:12:15.497Z,2.93
2017-10-14T09:17:43.634Z,3.20
2017-10-14T09:23:11.813Z,2.73
2017-10-14T09:28:39.994Z,2.77
2017-10-14T09:34:08.179Z,2.97
2017-10-14T09:39:36.352Z,2.97
2017-10-14T09:45:05.486Z,3.07
2017-10-14T09:50:33.617Z,3.30
2017-10-14T09:56:01.744Z,3.10
2017-10-14T10:01:30.695Z,2.50
2017-10-14T10:06:58.849Z,3.00
2017-10-14T10:12:26.998Z,3.10
2017-10-14T10:17:55.151Z,3.50
2017-10-14T10:23:23.323Z,3.40
2017-10-14T10:28:53.729Z,3.03
2017-10-14T10:34:21.919Z,3.23
2017-10-14T10:39:50.075Z,3.00
2017-10-14T10:45:19.065Z,2.93
2017-10-14T10:50:48.241Z,3.00
2017-10-14T10:56:17.275Z,3.07
2017-10-14T11:01:45.426Z,3.30
2017-10-14T11:07:13.749Z,3.40
2017-10-14T11:12:42.668Z,3.80
2017-10-14T11:18:10.847Z,3.60
2017-10-14T11:23:39.008Z,3.43
2017-10-14T11:29:07.187Z,3.53
2017-10-14T11:34:36.105Z,3.47
2017-10-14T11:40:04.230Z,3.20
2017-10-14T11:45:32.387Z,3.70
2017-10-14T11:51:01.306Z,4.27
2017-10-14T11:56:29.476Z,4.30
2017-10-14T12:01:57.637Z,3.53
2017-10-14T12:07:25.805Z,3.23
2017-10-14T12:12:55.768Z,3.30
2017-10-14T12:18:23.926Z,3.30
2017-10-14T12:23:52.148Z,2.80
2017-10-14T12:29:20.404Z,3.00
2017-10-14T12:34:49.315Z,2.20
2017-10-14T12:40:17.443Z,2.30
2017-10-14T12:45:46.338Z,2.70
2017-10-14T12:51:14.503Z,2.97
2017-10-14T12:56:42.651Z,2.20
2017-10-14T13:02:12.621Z,2.83
2017-10-14T13:07:40.968Z,2.80
2017-10-14T13:13:09.229Z,2.50
2017-10-14T13:18:37.384Z,2.80
2017-10-14T13:24:05.522Z,2.97
2017-10-14T13:29:33.673Z,3.10
2017-10-14T13:35:01.874Z,3.00
2017-10-14T13:40:30.022Z,3.60
2017-10-14T13:45:58.930Z,2.80
2017-10-14T13:51:27.724Z,2.60
2017-10-14T13:56:55.916Z,3.40
2017-10-14T14:02:24.165Z,2.60
2017-10-14T14:07:52.420Z,2.83
2017-10-14T14:13:20.570Z,2.50
2017-10-14T14:18:49.477Z,2.77
2017-10-14T14:24:17.686Z,2.60
2017-10-14T14:29:45.838Z,2.60
2017-10-14T14:35:14.194Z,2.30
2017-10-14T14:40:42.942Z,2.47
2017-10-14T14:46:11.891Z,2.13
2017-10-14T14:51:40.057Z,2.00
2017-10-14T14:57:08.197Z,2.40
2017-10-14T15:02:36.372Z,1.97
2017-10-14T15:08:04.507Z,1.93
2017-10-14T15:13:32.651Z,2.20
2017-10-14T15:19:01.025Z,1.80
2017-10-14T15:24:29.342Z,2.40
2017-10-14T15:29:57.690Z,2.40
2017-10-14T15:35:25.972Z,2.67
2017-10-14T15:40:55.088Z,4.83
2017-10-14T15:46:23.380Z,5.43
2017-10-14T15:51:54.049Z,5.23
2017-10-14T15:57:22.357Z,5.80
2017-10-14T16:02:51.798Z,7.17
2017-10-14T16:08:20.120Z,7.53
2017-10-14T16:13:48.237Z,7.10
2017-10-14T16:19:17.323Z,7.40
2017-10-14T16:24:45.475Z,10.50
2017-10-14T16:30:13.626Z,8.93
2017-10-14T16:35:41.813Z,7.27
2017-10-14T16:41:09.974Z,8.17
2017-10-14T16:46:38.166Z,7.10
2017-10-14T16:52:06.344Z,7.97
2017-10-14T16:57:34.480Z,7.43
2017-10-14T17:03:03.436Z,11.70
2017-10-14T17:08:31.722Z,10.50
2017-10-14T17:14:00.031Z,10.27
2017-10-14T17:19:28.190Z,11.00
2017-10-14T17:24:56.375Z,11.10
2017-10-14T17:30:24.883Z,10.90
2017-10-14T17:35:53.045Z,10.70
2017-10-14T17:41:21.252Z,9.47
2017-10-14T17:46:53.894Z,10.93
2017-10-14T17:52:22.072Z,11.57
2017-10-14T17:57:51.259Z,10.90
2017-10-14T18:03:20.354Z,11.50
2017-10-14T18:08:49.302Z,11.80
2017-10-14T18:14:17.454Z,11.33
2017-10-14T18:19:48.571Z,10.43
2017-10-14T18:25:16.715Z,10.17
2017-10-14T18:30:44.905Z,10.73
2017-10-14T18:36:13.078Z,11.53
2017-10-14T18:41:42.264Z,10.07
2017-10-14T18:47:11.402Z,11.57
2017-10-14T18:52:39.546Z,11.70
2017-10-14T18:58:07.688Z,11.20
2017-10-14T19:03:36.607Z,10.70
2017-10-14T19:09:04.936Z,10.87
2017-10-14T19:14:33.182Z,10.53
2017-10-14T19:20:01.329Z,12.10
2017-10-14T19:25:30.272Z,12.80
2017-10-14T19:30:58.430Z,13.40
2017-10-14T19:36:26.630Z,15.30
2017-10-14T19:41:54.822Z,16.43
2017-10-14T19:47:23.004Z,16.60
2017-10-14T19:52:51.214Z,15.70
2017-10-14T19:58:19.378Z,22.47
2017-10-14T20:03:47.554Z,22.80
2017-10-14T20:09:15.696Z,19.07
2017-10-14T20:14:43.906Z,17.20
2017-10-14T20:20:12.095Z,14.57
2017-10-14T20:25:40.252Z,15.10
2017-10-14T20:31:09.171Z,14.27
2017-10-14T20:36:37.521Z,14.90
2017-10-14T20:42:05.830Z,14.37
2017-10-14T20:47:34.927Z,12.27
2017-10-14T20:53:03.082Z,12.97
2017-10-14T20:58:31.994Z,13.43
2017-10-14T21:04:00.169Z,13.40
2017-10-14T21:09:28.350Z,12.50
2017-10-14T21:14:56.523Z,12.50
2017-10-14T21:20:25.455Z,12.53
2017-10-14T21:25:53.632Z,12.20
2017-10-14T21:31:21.778Z,11.37
2017-10-14T21:36:49.948Z,12.00
2017-10-14T21:42:18.112Z,12.20
2017-10-14T21:47:46.281Z,12.63
2017-10-14T21:53:14.428Z,10.67
2017-10-14T21:58:42.588Z,13.20
2017-10-14T22:04:10.734Z,11.57
2017-10-14T22:09:39.672Z,11.23
2017-10-14T22:15:08.580Z,11.27
2017-10-14T22:20:36.706Z,11.07
2017-10-14T22:26:04.868Z,12.70
2017-10-14T22:31:33.024Z,11.20
2017-10-14T22:37:02.012Z,11.10
2017-10-14T22:42:30.161Z,10.70
2017-10-14T22:47:58.357Z,11.57
2017-10-14T22:53:26.515Z,11.20
2017-10-14T22:58:54.711Z,10.50
2017-10-14T23:04:22.900Z,11.03
2017-10-14T23:09:51.062Z,10.00
2017-10-14T23:15:19.179Z,9.70
2017-10-14T23:20:47.332Z,10.00
2017-10-14T23:26:15.477Z,10.13
2017-10-14T23:31:43.637Z,9.73
2017-10-14T23:37:11.762Z,9.63
2017-10-14T23:42:39.899Z,10.23
2017-10-14T23:48:08.042Z,8.73
2017-10-14T23:53:36.944Z,9.17
2017-10-14T23:59:05.132Z,8.27
